createdAt,value
2023-04-27T00:01:54.643Z,0.47
2023-04-27T00:04:21.915Z,0.60
2023-04-27T00:06:49.090Z,0.50
2023-04-27T00:09:18.391Z,0.50
2023-04-27T00:11:45.452Z,0.60
2023-04-27T00:14:12.286Z,0.50
2023-04-27T00:16:39.377Z,0.45
2023-04-27T00:19:06.913Z,0.50
2023-04-27T00:21:33.533Z,0.40
2023-04-27T00:24:00.460Z,0.50
2023-04-27T00:26:27.207Z,0.57
2023-04-27T00:29:00.454Z,0.60
2023-04-27T00:31:30.661Z,0.43
2023-04-27T00:33:58.974Z,0.40
2023-04-27T00:36:25.851Z,0.45
2023-04-27T00:38:53.374Z,0.68
2023-04-27T00:41:20.157Z,0.52
2023-04-27T00:43:47.586Z,0.90
2023-04-27T00:46:22.358Z,0.60
2023-04-27T00:48:49.939Z,0.77
2023-04-27T00:51:19.098Z,0.52
2023-04-27T00:53:48.778Z,0.55
2023-04-27T00:56:21.180Z,0.93
2023-04-27T00:58:49.498Z,0.50
2023-04-27T01:01:17.971Z,0.47
2023-04-27T01:03:45.486Z,0.43
2023-04-27T01:06:15.318Z,0.68
2023-04-27T01:08:44.475Z,0.57
2023-04-27T01:11:16.894Z,0.50
2023-04-27T01:13:44.968Z,0.65
2023-04-27T01:16:11.990Z,0.60
2023-04-27T01:18:40.747Z,0.68
2023-04-27T01:21:08.304Z,0.68
2023-04-27T01:23:35.336Z,0.77
2023-04-27T01:26:02.436Z,0.60
2023-04-27T01:28:29.358Z,0.60
2023-04-27T01:30:59.088Z,0.90
2023-04-27T01:33:25.991Z,0.70
2023-04-27T01:35:56.138Z,1.50
2023-04-27T01:38:24.242Z,1.67
2023-04-27T01:40:51.332Z,1.75
2023-04-27T01:43:20.308Z,1.60
2023-04-27T01:45:48.511Z,1.50
2023-04-27T01:48:15.511Z,1.10
2023-04-27T01:50:44.156Z,1.00
2023-04-27T01:53:11.560Z,0.77
2023-04-27T01:55:38.575Z,0.98
2023-04-27T01:58:05.670Z,0.70
2023-04-27T02:00:33.019Z,1.00
2023-04-27T02:03:02.685Z,0.90
2023-04-27T02:05:29.512Z,1.00
2023-04-27T02:07:58.775Z,1.35
2023-04-27T02:10:25.606Z,1.00
2023-04-27T02:12:56.999Z,0.85
2023-04-27T02:15:25.321Z,1.20
2023-04-27T02:17:52.270Z,1.00
2023-04-27T02:20:19.302Z,0.95
2023-04-27T02:22:46.209Z,1.20
2023-04-27T02:25:13.783Z,1.08
2023-04-27T02:27:43.426Z,1.05
2023-04-27T02:30:12.331Z,1.00
2023-04-27T02:32:40.111Z,1.10
2023-04-27T02:35:07.995Z,1.20
2023-04-27T02:37:35.061Z,1.20
2023-04-27T02:40:02.199Z,1.02
2023-04-27T02:42:33.237Z,1.60
2023-04-27T02:45:00.048Z,1.42
2023-04-27T02:47:29.400Z,1.50
2023-04-27T02:49:56.773Z,1.33
2023-04-27T02:52:25.515Z,1.90
2023-04-27T02:54:52.448Z,2.30
2023-04-27T02:57:19.345Z,2.10
2023-04-27T02:59:46.565Z,1.60
2023-04-27T03:02:13.563Z,1.50
2023-04-27T03:04:40.517Z,1.25
2023-04-27T03:07:07.332Z,1.33
2023-04-27T03:09:34.087Z,1.00
2023-04-27T03:12:00.968Z,1.00
2023-04-27T03:14:30.078Z,0.70
2023-04-27T03:16:58.306Z,1.00
2023-04-27T03:19:25.294Z,0.70
2023-04-27T03:21:52.238Z,1.00
2023-04-27T03:24:19.199Z,1.67
2023-04-27T03:26:46.247Z,1.23
2023-04-27T03:29:15.109Z,1.05
2023-04-27T03:31:42.188Z,0.95
2023-04-27T03:34:09.028Z,1.08
2023-04-27T03:36:38.215Z,0.88
2023-04-27T03:39:05.154Z,1.00
2023-04-27T03:41:31.904Z,1.20
2023-04-27T03:43:58.706Z,1.08
2023-04-27T03:46:26.075Z,0.95
2023-04-27T03:48:53.172Z,0.90
2023-04-27T03:51:23.512Z,1.00
2023-04-27T03:53:57.576Z,1.25
2023-04-27T03:56:26.149Z,1.10
2023-04-27T03:58:56.565Z,0.98
2023-04-27T04:01:34.601Z,0.68
2023-04-27T04:04:09.205Z,0.93
2023-04-27T04:06:44.999Z,0.90
2023-04-27T04:09:15.728Z,0.60
2023-04-27T04:11:43.274Z,1.15
2023-04-27T04:14:13.705Z,0.70
2023-04-27T04:16:40.742Z,0.82
2023-04-27T04:19:07.768Z,0.95
2023-04-27T04:21:34.892Z,0.93
2023-04-27T04:24:02.334Z,1.00
2023-04-27T04:26:30.785Z,0.73
2023-04-27T04:29:11.183Z,0.90
2023-04-27T04:31:40.909Z,0.90
2023-04-27T04:34:10.197Z,0.80
2023-04-27T04:36:40.850Z,0.60
2023-04-27T04:39:11.116Z,0.90
2023-04-27T04:41:39.664Z,0.98
2023-04-27T04:44:09.418Z,0.90
2023-04-27T04:46:41.009Z,0.60
2023-04-27T04:49:08.603Z,0.82
2023-04-27T04:51:36.344Z,0.73
2023-04-27T04:54:05.823Z,0.95
2023-04-27T04:56:33.242Z,0.90
2023-04-27T04:59:02.666Z,0.73
2023-04-27T05:01:31.705Z,0.90
2023-04-27T05:03:59.100Z,1.15
2023-04-27T05:06:26.481Z,1.00
2023-04-27T05:08:53.383Z,1.08
2023-04-27T05:11:20.237Z,1.30
2023-04-27T05:13:47.991Z,1.30
2023-04-27T05:16:15.359Z,1.50
2023-04-27T05:18:42.330Z,1.40
2023-04-27T05:21:16.435Z,0.93
2023-04-27T05:23:43.358Z,1.05
2023-04-27T05:26:17.033Z,1.42
2023-04-27T05:28:44.443Z,1.10
2023-04-27T05:31:18.934Z,1.17
2023-04-27T05:33:45.897Z,1.20
2023-04-27T05:36:16.402Z,1.52
2023-04-27T05:38:49.473Z,1.40
2023-04-27T05:41:16.652Z,1.02
2023-04-27T05:43:43.992Z,1.10
2023-04-27T05:46:14.983Z,1.00
2023-04-27T05:48:41.899Z,0.88
2023-04-27T05:51:08.730Z,0.80
2023-04-27T05:53:36.065Z,1.30
2023-04-27T05:56:04.644Z,1.42
2023-04-27T05:58:31.901Z,0.90
2023-04-27T06:00:59.494Z,0.77
2023-04-27T06:03:27.712Z,0.90
2023-04-27T06:05:58.621Z,0.70
2023-04-27T06:08:29.735Z,0.70
2023-04-27T06:10:59.261Z,1.65
2023-04-27T06:13:26.453Z,1.58
2023-04-27T06:15:57.499Z,0.73
2023-04-27T06:18:24.447Z,0.70
2023-04-27T06:20:54.380Z,0.90
2023-04-27T06:23:28.352Z,0.85
2023-04-27T06:25:55.692Z,0.82
2023-04-27T06:28:30.450Z,1.15
2023-04-27T06:30:57.618Z,1.17
2023-04-27T06:33:24.817Z,1.40
2023-04-27T06:35:55.620Z,1.17
2023-04-27T06:38:24.917Z,1.20
2023-04-27T06:40:55.500Z,1.27
2023-04-27T06:43:24.684Z,1.40
2023-04-27T06:45:54.377Z,1.13
2023-04-27T06:48:23.778Z,1.35
2023-04-27T06:50:51.110Z,1.42
2023-04-27T06:53:35.881Z,1.17
2023-04-27T06:56:05.030Z,1.00
2023-04-27T06:58:34.836Z,1.23
2023-04-27T07:01:12.690Z,1.02
2023-04-27T07:03:39.689Z,1.00
2023-04-27T07:06:06.981Z,0.90
2023-04-27T07:08:33.850Z,1.00
2023-04-27T07:11:00.778Z,1.30
2023-04-27T07:13:27.875Z,0.95
2023-04-27T07:15:58.128Z,0.90
2023-04-27T07:18:35.288Z,0.93
2023-04-27T07:21:03.148Z,1.00
2023-04-27T07:23:30.213Z,0.90
2023-04-27T07:25:59.276Z,0.75
2023-04-27T07:28:28.935Z,1.20
2023-04-27T07:31:00.869Z,0.90
2023-04-27T07:33:30.091Z,1.20
2023-04-27T07:36:05.463Z,1.13
2023-04-27T07:38:35.680Z,1.08
2023-04-27T07:41:06.276Z,1.08
2023-04-27T07:43:41.756Z,1.38
2023-04-27T07:46:42.586Z,0.95
2023-04-27T07:49:09.731Z,1.00
2023-04-27T07:51:36.552Z,1.77
2023-04-27T07:54:04.311Z,1.20
2023-04-27T07:56:31.313Z,1.10
2023-04-27T07:59:11.911Z,0.70
2023-04-27T08:05:51.714Z,1.10
2023-04-27T08:08:33.306Z,3.55
2023-04-27T08:11:10.483Z,1.17
2023-04-27T08:14:01.096Z,1.17
2023-04-27T08:17:08.541Z,1.33
2023-04-27T08:19:49.418Z,1.52
2023-04-27T08:22:16.480Z,1.10
2023-04-27T08:24:50.808Z,1.10
2023-04-27T08:27:21.964Z,1.05
2023-04-27T08:30:04.043Z,1.10
2023-04-27T08:32:36.755Z,1.00
2023-04-27T08:35:21.098Z,1.13
2023-04-27T08:37:48.027Z,1.10
2023-04-27T08:40:17.964Z,1.20
2023-04-27T08:43:01.762Z,1.55
2023-04-27T08:45:29.101Z,1.00
2023-04-27T08:47:56.145Z,1.05
2023-04-27T08:50:26.030Z,1.27
2023-04-27T08:52:53.457Z,0.90
2023-04-27T08:55:23.786Z,1.17
2023-04-27T08:58:01.447Z,1.00
2023-04-27T09:00:40.137Z,1.10
2023-04-27T09:03:08.102Z,1.20
2023-04-27T09:05:36.336Z,1.40
2023-04-27T09:08:07.863Z,1.40
2023-04-27T09:10:51.179Z,1.23
2023-04-27T09:13:21.118Z,0.90
2023-04-27T09:15:51.908Z,1.42
2023-04-27T09:18:21.644Z,1.42
2023-04-27T09:20:52.058Z,1.25
2023-04-27T09:23:33.734Z,1.30
2023-04-27T09:26:08.384Z,1.75
2023-04-27T09:28:39.108Z,1.30
2023-04-27T09:31:09.231Z,1.23
2023-04-27T09:33:36.886Z,1.02
2023-04-27T09:36:06.304Z,1.30
2023-04-27T09:38:36.232Z,1.27
2023-04-27T09:41:03.729Z,1.00
2023-04-27T09:43:31.633Z,1.73
2023-04-27T09:45:59.195Z,1.17
2023-04-27T09:48:26.900Z,2.20
2023-04-27T09:50:53.944Z,1.17
2023-04-27T09:53:27.347Z,1.55
2023-04-27T09:56:28.414Z,1.70
2023-04-27T09:59:18.247Z,1.58
2023-04-27T10:01:52.453Z,1.83
2023-04-27T10:05:07.066Z,1.20
2023-04-27T10:07:46.091Z,1.65
2023-04-27T10:10:20.523Z,1.67
2023-04-27T10:12:58.514Z,1.70
2023-04-27T10:15:30.254Z,1.50
2023-04-27T10:18:04.859Z,1.38
2023-04-27T10:20:33.633Z,1.90
2023-04-27T10:23:02.196Z,1.65
2023-04-27T10:25:39.818Z,2.78
2023-04-27T10:28:09.353Z,1.83
2023-04-27T10:30:38.847Z,2.00
2023-04-27T10:33:08.699Z,1.63
2023-04-27T10:35:39.593Z,1.70
2023-04-27T10:38:18.005Z,1.90
2023-04-27T10:40:46.689Z,2.20
2023-04-27T10:43:17.933Z,2.10
2023-04-27T10:45:45.458Z,1.90
2023-04-27T10:48:16.005Z,1.98
2023-04-27T10:50:44.919Z,1.77
2023-04-27T10:53:11.840Z,2.10
2023-04-27T10:55:38.767Z,1.40
2023-04-27T10:58:06.121Z,1.58
2023-04-27T11:00:34.077Z,1.73
2023-04-27T11:03:26.878Z,1.45
2023-04-27T11:06:02.340Z,1.75
2023-04-27T11:08:30.775Z,2.15
2023-04-27T11:10:59.689Z,1.65
2023-04-27T11:13:33.837Z,1.92
2023-04-27T11:16:01.032Z,1.73
2023-04-27T11:18:33.112Z,1.60
2023-04-27T11:21:14.347Z,1.60
2023-04-27T11:23:42.835Z,2.20
2023-04-27T11:26:17.148Z,1.50
2023-04-27T11:28:49.931Z,1.85
2023-04-27T11:31:38.727Z,1.45
2023-04-27T11:34:07.900Z,1.52
2023-04-27T11:36:36.212Z,1.90
2023-04-27T11:39:36.776Z,1.35
2023-04-27T11:41:55.266Z,1.60
2023-04-27T11:44:49.708Z,1.33
2023-04-27T11:47:22.495Z,2.10
2023-04-27T11:49:57.542Z,1.50
2023-04-27T11:52:37.797Z,1.55
2023-04-27T11:55:17.850Z,1.48
2023-04-27T11:57:45.914Z,1.38
2023-04-27T12:00:15.864Z,1.63
2023-04-27T12:02:46.212Z,1.52
2023-04-27T12:05:15.651Z,2.03
2023-04-27T12:07:43.370Z,1.45
2023-04-27T12:10:10.631Z,1.50
2023-04-27T12:12:37.673Z,1.70
2023-04-27T12:15:12.511Z,1.40
2023-04-27T12:17:40.193Z,1.20
2023-04-27T12:20:23.297Z,1.30
2023-04-27T12:22:58.068Z,1.42
2023-04-27T12:25:47.594Z,1.73
2023-04-27T12:29:06.990Z,1.70
2023-04-27T12:31:17.450Z,1.60
2023-04-27T12:33:47.006Z,1.15
2023-04-27T12:36:20.134Z,1.50
2023-04-27T12:39:16.335Z,1.60
2023-04-27T12:41:49.847Z,1.35
2023-04-27T12:44:19.922Z,1.60
2023-04-27T12:46:54.390Z,1.52
2023-04-27T12:49:22.653Z,1.58
2023-04-27T12:51:52.024Z,1.42
2023-04-27T12:54:25.548Z,1.48
2023-04-27T12:56:55.149Z,1.60
2023-04-27T12:59:27.695Z,2.28
2023-04-27T13:01:57.394Z,1.55
2023-04-27T13:04:27.043Z,1.60
2023-04-27T13:06:54.233Z,1.85
2023-04-27T13:09:31.400Z,1.75
2023-04-27T13:12:05.143Z,1.83
2023-04-27T13:14:41.395Z,1.60
2023-04-27T13:17:12.622Z,1.58
2023-04-27T13:19:48.061Z,1.85
2023-04-27T13:22:15.185Z,1.90
2023-04-27T13:24:49.293Z,2.10
2023-04-27T13:27:23.105Z,2.10
2023-04-27T13:29:51.288Z,2.33
2023-04-27T13:32:23.089Z,2.20
2023-04-27T13:34:52.350Z,2.10
2023-04-27T13:37:27.212Z,2.50
2023-04-27T13:40:01.224Z,2.42
2023-04-27T13:42:29.727Z,2.22
2023-04-27T13:44:59.053Z,2.80
2023-04-27T13:47:40.397Z,2.78
2023-04-27T13:50:11.276Z,2.80
2023-04-27T13:52:39.245Z,2.78
2023-04-27T13:55:19.829Z,3.38
2023-04-27T13:57:49.284Z,2.65
2023-04-27T14:00:19.033Z,2.72
2023-04-27T14:03:12.023Z,2.70
2023-04-27T14:05:41.821Z,2.65
2023-04-27T14:08:08.833Z,3.00
2023-04-27T14:10:41.527Z,2.70
2023-04-27T14:13:10.532Z,2.83
2023-04-27T14:15:47.881Z,2.50
2023-04-27T14:18:17.987Z,2.45
2023-04-27T14:20:54.770Z,2.50
2023-04-27T14:23:30.940Z,2.83
2023-04-27T14:26:01.015Z,2.38
2023-04-27T14:28:44.267Z,2.33
2023-04-27T14:31:21.558Z,2.55
2023-04-27T14:33:48.690Z,1.63
2023-04-27T14:36:27.279Z,2.30
2023-04-27T14:38:54.315Z,2.50
2023-04-27T14:41:21.335Z,2.38
2023-04-27T14:43:48.920Z,2.30
2023-04-27T14:46:20.874Z,2.53
2023-04-27T14:48:48.738Z,2.40
2023-04-27T14:51:18.811Z,2.45
2023-04-27T14:53:45.863Z,2.42
2023-04-27T14:56:12.749Z,2.42
2023-04-27T14:58:39.651Z,2.20
2023-04-27T15:01:07.797Z,2.33
2023-04-27T15:03:34.985Z,2.10
2023-04-27T15:06:02.742Z,1.98
2023-04-27T15:08:34.343Z,2.38
2023-04-27T15:11:03.829Z,2.35
2023-04-27T15:13:31.250Z,2.40
2023-04-27T15:16:11.842Z,2.75
2023-04-27T15:18:38.801Z,2.42
2023-04-27T15:21:06.812Z,2.60
2023-04-27T15:23:45.707Z,2.33
2023-04-27T15:26:12.730Z,2.60
2023-04-27T15:28:39.815Z,2.35
2023-04-27T15:31:08.890Z,2.60
2023-04-27T15:33:38.248Z,2.78
2023-04-27T15:36:07.870Z,2.80
2023-04-27T15:38:40.733Z,2.90
2023-04-27T15:41:16.230Z,3.10
2023-04-27T15:43:43.268Z,2.53
2023-04-27T15:46:13.961Z,2.55
2023-04-27T15:48:43.394Z,3.03
2023-04-27T15:51:10.678Z,2.60
2023-04-27T15:53:37.742Z,2.67
2023-04-27T15:56:04.739Z,2.50
2023-04-27T15:58:31.541Z,2.90
2023-04-27T16:01:00.154Z,2.53
2023-04-27T16:03:27.087Z,2.50
2023-04-27T16:05:56.865Z,2.20
2023-04-27T16:08:23.957Z,2.20
2023-04-27T16:11:11.655Z,2.50
2023-04-27T16:13:38.794Z,2.53
2023-04-27T16:16:09.632Z,2.15
2023-04-27T16:18:38.933Z,2.63
2023-04-27T16:21:08.249Z,2.53
2023-04-27T16:23:38.044Z,1.95
2023-04-27T16:26:05.025Z,1.75
2023-04-27T16:28:34.119Z,2.20
2023-04-27T16:31:08.306Z,2.00
2023-04-27T16:33:47.157Z,2.45
2023-04-27T16:36:27.585Z,2.58
2023-04-27T16:39:12.453Z,2.63
2023-04-27T16:41:39.528Z,2.00
2023-04-27T16:44:19.355Z,2.10
2023-04-27T16:46:46.510Z,2.42
2023-04-27T16:49:14.174Z,2.22
2023-04-27T16:51:44.288Z,2.50
2023-04-27T16:54:16.669Z,2.10
2023-04-27T16:57:27.827Z,2.03
2023-04-27T17:00:16.773Z,2.17
2023-04-27T17:02:51.593Z,2.40
2023-04-27T17:05:44.696Z,2.30
2023-04-27T17:08:13.872Z,2.05
2023-04-27T17:10:43.885Z,2.10
2023-04-27T17:13:17.570Z,2.67
2023-04-27T17:16:02.712Z,2.17
2023-04-27T17:18:35.378Z,2.30
2023-04-27T17:21:11.722Z,3.42
2023-04-27T17:23:52.390Z,2.10
2023-04-27T17:26:21.563Z,2.17
2023-04-27T17:29:06.961Z,2.20
2023-04-27T17:32:09.449Z,1.88
2023-04-27T17:34:42.431Z,2.00
2023-04-27T17:37:24.241Z,2.28
2023-04-27T17:40:12.675Z,2.40
2023-04-27T17:42:47.259Z,2.25
2023-04-27T17:45:21.564Z,1.97
2023-04-27T17:47:50.841Z,2.22
2023-04-27T17:50:20.028Z,2.08
2023-04-27T17:52:49.506Z,4.30
2023-04-27T17:55:18.710Z,2.35
2023-04-27T17:57:45.623Z,2.05
2023-04-27T18:00:13.187Z,2.63
2023-04-27T18:02:40.352Z,2.45
2023-04-27T18:05:11.798Z,2.20
2023-04-27T18:08:01.265Z,2.30
2023-04-27T18:10:48.154Z,2.03
2023-04-27T18:13:38.013Z,2.38
2023-04-27T18:16:40.882Z,2.03
2023-04-27T18:19:10.861Z,2.38
2023-04-27T18:21:43.014Z,2.05
2023-04-27T18:24:10.435Z,2.20
2023-04-27T18:26:42.327Z,2.08
2023-04-27T18:29:09.091Z,2.10
2023-04-27T18:31:38.776Z,2.03
2023-04-27T18:34:07.991Z,2.50
2023-04-27T18:36:35.397Z,1.60
2023-04-27T18:39:02.015Z,1.73
2023-04-27T18:41:28.633Z,1.80
2023-04-27T18:44:11.631Z,2.15
2023-04-27T18:46:38.870Z,2.13
2023-04-27T18:49:05.623Z,1.77
2023-04-27T18:51:32.440Z,1.95
2023-04-27T18:53:59.149Z,2.00
2023-04-27T18:56:25.926Z,3.13
2023-04-27T18:58:53.333Z,2.78
2023-04-27T19:01:24.560Z,2.13
2023-04-27T19:03:52.042Z,2.33
2023-04-27T19:06:22.864Z,1.98
2023-04-27T19:08:50.294Z,2.05
2023-04-27T19:11:49.441Z,2.17
2023-04-27T19:14:20.040Z,2.38
2023-04-27T19:16:53.187Z,2.15
2023-04-27T19:19:24.991Z,2.33
2023-04-27T19:21:58.698Z,2.30
2023-04-27T19:24:37.270Z,2.20
2023-04-27T19:27:04.427Z,2.00
2023-04-27T19:29:31.479Z,3.55
2023-04-27T19:32:00.421Z,2.17
2023-04-27T19:34:29.363Z,2.35
2023-04-27T19:36:56.274Z,2.28
2023-04-27T19:39:22.977Z,2.17
2023-04-27T19:41:49.792Z,2.60
2023-04-27T19:44:19.613Z,2.42
2023-04-27T19:46:46.206Z,2.55
2023-04-27T19:49:13.072Z,2.67
2023-04-27T19:51:42.440Z,2.42
2023-04-27T19:54:09.137Z,2.08
2023-04-27T19:56:35.966Z,2.40
2023-04-27T19:59:02.577Z,3.50
2023-04-27T20:01:29.333Z,2.40
2023-04-27T20:03:56.537Z,2.65
2023-04-27T20:06:23.410Z,2.55
2023-04-27T20:08:50.231Z,2.63
2023-04-27T20:11:17.175Z,2.40
2023-04-27T20:13:43.837Z,2.30
2023-04-27T20:16:10.526Z,2.20
2023-04-27T20:18:37.972Z,2.47
2023-04-27T20:21:04.825Z,2.22
2023-04-27T20:23:31.559Z,2.47
2023-04-27T20:25:58.318Z,2.30
2023-04-27T20:28:30.554Z,2.25
2023-04-27T20:30:57.398Z,2.80
2023-04-27T20:33:24.106Z,2.45
2023-04-27T20:35:55.442Z,2.15
2023-04-27T20:38:27.029Z,1.95
2023-04-27T20:40:53.809Z,2.28
2023-04-27T20:43:21.219Z,2.28
2023-04-27T20:45:48.121Z,2.42
2023-04-27T20:48:14.735Z,2.30
2023-04-27T20:50:41.550Z,2.53
2023-04-27T20:53:08.251Z,2.25
2023-04-27T20:55:34.860Z,2.38
2023-04-27T20:58:01.575Z,2.47
2023-04-27T21:00:28.200Z,2.60
2023-04-27T21:02:55.012Z,2.08
2023-04-27T21:05:21.781Z,1.75
2023-04-27T21:07:51.477Z,2.60
2023-04-27T21:10:18.218Z,2.17
2023-04-27T21:12:44.895Z,2.35
2023-04-27T21:15:12.041Z,1.90
2023-04-27T21:17:38.782Z,2.15
2023-04-27T21:20:06.188Z,3.08
2023-04-27T21:22:36.255Z,2.10
2023-04-27T21:25:04.639Z,1.83
2023-04-27T21:27:31.779Z,1.55
2023-04-27T21:29:59.104Z,2.00
2023-04-27T21:32:25.924Z,1.67
2023-04-27T21:34:52.602Z,2.10
2023-04-27T21:37:19.219Z,2.28
2023-04-27T21:39:46.002Z,2.30
2023-04-27T21:42:12.725Z,2.15
2023-04-27T21:44:39.424Z,1.80
2023-04-27T21:47:06.080Z,2.15
2023-04-27T21:49:32.756Z,2.20
2023-04-27T21:51:59.350Z,2.10
2023-04-27T21:54:26.145Z,1.77
2023-04-27T21:56:53.060Z,1.70
2023-04-27T21:59:20.526Z,1.60
2023-04-27T22:01:47.203Z,1.90
2023-04-27T22:04:14.411Z,1.60
2023-04-27T22:06:41.341Z,1.40
2023-04-27T22:09:14.265Z,1.70
2023-04-27T22:11:41.296Z,1.55
2023-04-27T22:14:08.391Z,1.90
2023-04-27T22:16:35.174Z,2.42
2023-04-27T22:19:01.973Z,2.20
2023-04-27T22:21:28.939Z,2.03
2023-04-27T22:23:55.873Z,1.55
2023-04-27T22:26:24.689Z,2.20
2023-04-27T22:28:51.457Z,1.63
2023-04-27T22:31:18.223Z,1.90
2023-04-27T22:33:44.927Z,1.33
2023-04-27T22:36:12.068Z,1.88
2023-04-27T22:38:38.892Z,2.00
2023-04-27T22:41:05.581Z,1.63
2023-04-27T22:43:32.198Z,1.70
2023-04-27T22:45:58.858Z,1.83
2023-04-27T22:48:26.063Z,1.25
2023-04-27T22:50:52.763Z,1.60
2023-04-27T22:53:19.500Z,2.10
2023-04-27T22:55:46.702Z,1.48
2023-04-27T22:58:13.389Z,1.63
2023-04-27T23:00:43.029Z,1.60
2023-04-27T23:03:11.316Z,1.38
2023-04-27T23:05:40.272Z,1.77
2023-04-27T23:08:07.626Z,1.50
2023-04-27T23:10:34.906Z,2.35
2023-04-27T23:13:04.201Z,1.58
2023-04-27T23:15:31.693Z,1.35
2023-04-27T23:17:58.802Z,1.70
2023-04-27T23:20:28.550Z,1.20
2023-04-27T23:22:56.223Z,1.58
2023-04-27T23:25:23.004Z,1.48
2023-04-27T23:27:51.857Z,2.20
2023-04-27T23:30:19.578Z,1.30
2023-04-27T23:32:46.402Z,1.60
2023-04-27T23:35:13.165Z,1.08
2023-04-27T23:37:39.799Z,1.30
2023-04-27T23:40:07.180Z,1.50
2023-04-27T23:42:33.885Z,1.50
2023-04-27T23:45:01.560Z,1.80
2023-04-27T23:47:28.237Z,1.52
2023-04-27T23:49:54.903Z,1.50
2023-04-27T23:52:21.530Z,1.60
2023-04-27T23:54:50.434Z,1.42
2023-04-27T23:57:17.207Z,1.42
2023-04-27T23:59:43.910Z,1.90
